South Bend, Nebraska
Current Conditions -  °F | °C
As of 11:15 AM on Saturday 20 Dec 2014 (Local Time) from KMLE Reporting Station
Haze Haze  
Wind Chill: 29°   Ceiling: 600
Heat Index: 33°   Visibility: 4mi
Dew Point: 32°   Wind: 5mph
Humidity: 94%   Direction: 180°S
Pressure: 30.12"   Gusts: NA
Location:  41°N, 96.25°W
Report Text: KMLE 201715Z AUTO 18004KT 4SM BR OVC006 01/00 A3012 RMK AO2 T00061002
Loading
Personal Weather Stations






























Interactive Weather Map New forecast layout! Learn more

10-Day Weather Forecast

Advertisements
Track Severe Weather on mobile